sensor_id;sensor_type;location;lat;lon;timestamp;pressure;altitude;pressure_sealevel;temperature;humidity
36932;BME280;22847;42.654;23.370;2023-02-17T00:01:15;95630.59;;;7.45;46.29
36932;BME280;22847;42.654;23.370;2023-02-17T00:03:42;95616.38;;;7.50;46.16
36932;BME280;22847;42.654;23.370;2023-02-17T00:06:09;95619.69;;;7.52;46.02
36932;BME280;22847;42.654;23.370;2023-02-17T00:08:35;95588.16;;;7.46;46.03
36932;BME280;22847;42.654;23.370;2023-02-17T00:11:00;95584.81;;;7.31;46.21
36932;BME280;22847;42.654;23.370;2023-02-17T00:13:26;95583.88;;;7.32;46.00
36932;BME280;22847;42.654;23.370;2023-02-17T00:15:51;95530.94;;;6.97;45.89
36932;BME280;22847;42.654;23.370;2023-02-17T00:18:17;95584.81;;;7.31;46.00
36932;BME280;22847;42.654;23.370;2023-02-17T00:20:42;95563.59;;;6.99;46.16
36932;BME280;22847;42.654;23.370;2023-02-17T00:23:08;95556.56;;;7.14;46.28
36932;BME280;22847;42.654;23.370;2023-02-17T00:25:33;95596.53;;;7.24;46.52
36932;BME280;22847;42.654;23.370;2023-02-17T00:27:59;95569.03;;;7.22;46.35
36932;BME280;22847;42.654;23.370;2023-02-17T00:30:24;95501.53;;;6.71;46.03
36932;BME280;22847;42.654;23.370;2023-02-17T00:32:49;95588.59;;;7.00;45.93
36932;BME280;22847;42.654;23.370;2023-02-17T00:35:15;95562.16;;;7.08;45.72
36932;BME280;22847;42.654;23.370;2023-02-17T00:37:40;95555.50;;;7.04;45.77
36932;BME280;22847;42.654;23.370;2023-02-17T00:40:10;95375.41;;;5.94;45.80
36932;BME280;22847;42.654;23.370;2023-02-17T00:42:35;95582.06;;;7.07;45.68
36932;BME280;22847;42.654;23.370;2023-02-17T00:45:01;95428.19;;;6.31;45.85
36932;BME280;22847;42.654;23.370;2023-02-17T00:47:26;95537.03;;;6.96;45.92
36932;BME280;22847;42.654;23.370;2023-02-17T00:49:52;95553.75;;;6.92;46.28
36932;BME280;22847;42.654;23.370;2023-02-17T00:52:17;95320.38;;;5.51;46.27
36932;BME280;22847;42.654;23.370;2023-02-17T00:54:42;95372.84;;;5.53;47.48
36932;BME280;22847;42.654;23.370;2023-02-17T00:57:08;95295.44;;;5.23;47.50
36932;BME280;22847;42.654;23.370;2023-02-17T00:59:33;95536.09;;;6.84;46.83
36932;BME280;22847;42.654;23.370;2023-02-17T01:01:59;95568.38;;;6.93;47.28
36932;BME280;22847;42.654;23.370;2023-02-17T01:04:24;95207.00;;;4.91;47.24
36932;BME280;22847;42.654;23.370;2023-02-17T01:06:49;95345.97;;;5.68;47.07
36932;BME280;22847;42.654;23.370;2023-02-17T01:09:15;95509.41;;;6.57;47.68
36932;BME280;22847;42.654;23.370;2023-02-17T01:11:41;95542.00;;;6.86;47.65
36932;BME280;22847;42.654;23.370;2023-02-17T01:14:07;95542.84;;;6.99;47.56
36932;BME280;22847;42.654;23.370;2023-02-17T01:16:35;95520.97;;;6.91;47.44
36932;BME280;22847;42.654;23.370;2023-02-17T01:19:03;95252.53;;;4.94;48.17
36932;BME280;22847;42.654;23.370;2023-02-17T01:21:30;95542.22;;;6.83;47.68
36932;BME280;22847;42.654;23.370;2023-02-17T01:23:58;95544.19;;;6.80;47.94
36932;BME280;22847;42.654;23.370;2023-02-17T01:26:25;95502.63;;;6.54;47.64
36932;BME280;22847;42.654;23.370;2023-02-17T01:28:51;95528.81;;;6.77;47.43
36932;BME280;22847;42.654;23.370;2023-02-17T01:31:18;95481.97;;;6.40;47.94
36932;BME280;22847;42.654;23.370;2023-02-17T01:33:44;95524.50;;;6.50;48.30
36932;BME280;22847;42.654;23.370;2023-02-17T01:36:11;95321.22;;;5.11;48.01
36932;BME280;22847;42.654;23.370;2023-02-17T01:38:37;95376.88;;;5.57;48.15
36932;BME280;22847;42.654;23.370;2023-02-17T01:41:04;95441.38;;;6.01;47.99
36932;BME280;22847;42.654;23.370;2023-02-17T01:43:30;95285.78;;;5.13;47.71
36932;BME280;22847;42.654;23.370;2023-02-17T01:46:03;95528.47;;;6.56;48.26
36932;BME280;22847;42.654;23.370;2023-02-17T01:50:59;95523.25;;;6.43;49.04
36932;BME280;22847;42.654;23.370;2023-02-17T01:53:38;95475.91;;;6.14;49.68
36932;BME280;22847;42.654;23.370;2023-02-17T01:56:06;95492.09;;;6.31;49.43
36932;BME280;22847;42.654;23.370;2023-02-17T01:58:32;95353.88;;;5.26;49.38
36932;BME280;22847;42.654;23.370;2023-02-17T02:01:00;95371.88;;;5.54;48.91
36932;BME280;22847;42.654;23.370;2023-02-17T02:03:30;95518.69;;;6.20;49.49
36932;BME280;22847;42.654;23.370;2023-02-17T02:05:57;95541.25;;;6.18;49.97
36932;BME280;22847;42.654;23.370;2023-02-17T02:08:27;95504.34;;;5.88;50.39
36932;BME280;22847;42.654;23.370;2023-02-17T02:10:54;95526.31;;;5.95;50.83
36932;BME280;22847;42.654;23.370;2023-02-17T02:13:20;95561.00;;;5.92;51.24
36932;BME280;22847;42.654;23.370;2023-02-17T02:15:55;95466.41;;;5.46;51.25
36932;BME280;22847;42.654;23.370;2023-02-17T02:18:40;95370.63;;;4.78;51.52
36932;BME280;22847;42.654;23.370;2023-02-17T02:21:43;95520.06;;;5.84;51.68
36932;BME280;22847;42.654;23.370;2023-02-17T02:37:54;95329.59;;;4.31;51.42
36932;BME280;22847;42.654;23.370;2023-02-17T02:40:23;95549.00;;;5.49;51.67
36932;BME280;22847;42.654;23.370;2023-02-17T02:42:52;95571.06;;;5.54;51.87
36932;BME280;22847;42.654;23.370;2023-02-17T02:45:18;95526.72;;;5.60;51.44
36932;BME280;22847;42.654;23.370;2023-02-17T02:47:52;95356.41;;;4.28;51.36
36932;BME280;22847;42.654;23.370;2023-02-17T02:50:19;95526.72;;;5.60;51.60
36932;BME280;22847;42.654;23.370;2023-02-17T02:53:21;95525.25;;;5.56;51.80
36932;BME280;22847;42.654;23.370;2023-02-17T02:56:04;95533.28;;;5.52;51.86
36932;BME280;22847;42.654;23.370;2023-02-17T03:01:36;95324.50;;;4.29;52.01
36932;BME280;22847;42.654;23.370;2023-02-17T03:04:13;95274.53;;;4.02;51.92
36932;BME280;22847;42.654;23.370;2023-02-17T03:06:49;95531.34;;;5.55;52.02
36932;BME280;22847;42.654;23.370;2023-02-17T03:09:20;95303.53;;;4.05;52.42
36932;BME280;22847;42.654;23.370;2023-02-17T03:11:46;95518.13;;;5.46;52.45
36932;BME280;22847;42.654;23.370;2023-02-17T03:14:15;95554.44;;;5.72;52.10
36932;BME280;22847;42.654;23.370;2023-02-17T03:16:41;95432.00;;;5.31;51.78
36932;BME280;22847;42.654;23.370;2023-02-17T03:19:08;95486.81;;;5.64;51.59
36932;BME280;22847;42.654;23.370;2023-02-17T03:21:38;95525.06;;;5.88;51.62
36932;BME280;22847;42.654;23.370;2023-02-17T03:24:04;95341.50;;;4.76;51.34
36932;BME280;22847;42.654;23.370;2023-02-17T03:26:30;95288.84;;;4.22;51.97
36932;BME280;22847;42.654;23.370;2023-02-17T03:28:55;95530.22;;;5.59;52.23
36932;BME280;22847;42.654;23.370;2023-02-17T03:31:20;95508.47;;;5.35;52.86
36932;BME280;22847;42.654;23.370;2023-02-17T03:33:47;95465.69;;;5.44;52.46
36932;BME280;22847;42.654;23.370;2023-02-17T03:36:12;95399.34;;;5.02;51.78
36932;BME280;22847;42.654;23.370;2023-02-17T03:38:38;95334.47;;;4.35;52.06
36932;BME280;22847;42.654;23.370;2023-02-17T03:41:03;95534.50;;;5.18;53.37
36932;BME280;22847;42.654;23.370;2023-02-17T03:43:29;95500.97;;;5.30;52.81
36932;BME280;22847;42.654;23.370;2023-02-17T03:45:54;95521.56;;;5.32;53.35
36932;BME280;22847;42.654;23.370;2023-02-17T03:48:20;95530.34;;;5.44;53.38
36932;BME280;22847;42.654;23.370;2023-02-17T03:50:45;95298.84;;;3.98;53.54
36932;BME280;22847;42.654;23.370;2023-02-17T03:53:10;95558.97;;;5.55;53.40
36932;BME280;22847;42.654;23.370;2023-02-17T03:55:36;95301.66;;;3.79;54.18
36932;BME280;22847;42.654;23.370;2023-02-17T03:58:02;95275.28;;;3.74;54.04
36932;BME280;22847;42.654;23.370;2023-02-17T04:00:29;95477.88;;;4.99;54.01
36932;BME280;22847;42.654;23.370;2023-02-17T04:02:54;95351.53;;;4.38;53.69
36932;BME280;22847;42.654;23.370;2023-02-17T04:05:21;95520.09;;;5.42;53.51
36932;BME280;22847;42.654;23.370;2023-02-17T04:07:47;95525.19;;;5.44;53.71
36932;BME280;22847;42.654;23.370;2023-02-17T04:10:12;95455.91;;;5.06;53.23
36932;BME280;22847;42.654;23.370;2023-02-17T04:12:38;95530.34;;;5.58;52.98
36932;BME280;22847;42.654;23.370;2023-02-17T04:15:03;95534.84;;;5.68;52.56
36932;BME280;22847;42.654;23.370;2023-02-17T04:17:29;95348.03;;;4.53;52.69
36932;BME280;22847;42.654;23.370;2023-02-17T04:19:54;95526.53;;;5.63;52.66
36932;BME280;22847;42.654;23.370;2023-02-17T04:22:20;95529.22;;;5.62;52.77
36932;BME280;22847;42.654;23.370;2023-02-17T04:24:45;95519.53;;;5.51;52.91
36932;BME280;22847;42.654;23.370;2023-02-17T04:27:10;95540.66;;;5.72;52.23
36932;BME280;22847;42.654;23.370;2023-02-17T04:29:36;95517.47;;;5.14;53.15
36932;BME280;22847;42.654;23.370;2023-02-17T04:32:01;95542.25;;;5.46;53.36
36932;BME280;22847;42.654;23.370;2023-02-17T04:34:27;95534.88;;;5.40;53.49
36932;BME280;22847;42.654;23.370;2023-02-17T04:36:52;95519.63;;;5.35;53.94
36932;BME280;22847;42.654;23.370;2023-02-17T04:39:18;95567.47;;;5.57;53.62
36932;BME280;22847;42.654;23.370;2023-02-17T04:41:43;95531.91;;;5.60;53.27
36932;BME280;22847;42.654;23.370;2023-02-17T04:44:08;95536.50;;;5.41;53.53
36932;BME280;22847;42.654;23.370;2023-02-17T04:46:34;95506.16;;;5.45;53.28
36932;BME280;22847;42.654;23.370;2023-02-17T04:48:59;95540.03;;;5.68;53.28
36932;BME280;22847;42.654;23.370;2023-02-17T04:51:25;95488.78;;;5.47;53.17
36932;BME280;22847;42.654;23.370;2023-02-17T04:53:50;95566.28;;;5.62;53.40
36932;BME280;22847;42.654;23.370;2023-02-17T04:56:15;95134.34;;;3.31;53.15
36932;BME280;22847;42.654;23.370;2023-02-17T04:58:41;95534.97;;;5.67;52.74
36932;BME280;22847;42.654;23.370;2023-02-17T05:01:06;95512.75;;;5.77;52.31
36932;BME280;22847;42.654;23.370;2023-02-17T05:03:32;95493.09;;;5.60;52.40
36932;BME280;22847;42.654;23.370;2023-02-17T05:05:57;95536.59;;;5.82;52.33
36932;BME280;22847;42.654;23.370;2023-02-17T05:08:23;95527.47;;;5.48;52.30
36932;BME280;22847;42.654;23.370;2023-02-17T05:10:51;95529.47;;;5.01;53.12
36932;BME280;22847;42.654;23.370;2023-02-17T05:13:17;95325.25;;;4.31;53.11
36932;BME280;22847;42.654;23.370;2023-02-17T05:15:44;95553.16;;;5.65;53.33
36932;BME280;22847;42.654;23.370;2023-02-17T05:18:09;95385.75;;;4.56;53.38
36932;BME280;22847;42.654;23.370;2023-02-17T05:20:35;95522.22;;;5.35;53.27
36932;BME280;22847;42.654;23.370;2023-02-17T05:23:00;95494.50;;;5.09;54.00
36932;BME280;22847;42.654;23.370;2023-02-17T05:25:26;95557.75;;;5.46;54.37
36932;BME280;22847;42.654;23.370;2023-02-17T05:27:51;95574.59;;;5.39;54.56
36932;BME280;22847;42.654;23.370;2023-02-17T05:30:16;95568.94;;;5.61;54.47
36932;BME280;22847;42.654;23.370;2023-02-17T05:32:42;95574.94;;;5.47;54.74
36932;BME280;22847;42.654;23.370;2023-02-17T05:35:07;95520.91;;;5.43;53.82
36932;BME280;22847;42.654;23.370;2023-02-17T05:37:33;95546.69;;;5.44;54.24
36932;BME280;22847;42.654;23.370;2023-02-17T05:39:58;95582.34;;;5.81;53.54
36932;BME280;22847;42.654;23.370;2023-02-17T05:42:24;95579.31;;;5.75;53.66
36932;BME280;22847;42.654;23.370;2023-02-17T05:44:55;95586.81;;;5.94;53.35
36932;BME280;22847;42.654;23.370;2023-02-17T05:47:21;95319.63;;;4.25;53.49
36932;BME280;22847;42.654;23.370;2023-02-17T05:49:47;95594.03;;;5.89;53.38
36932;BME280;22847;42.654;23.370;2023-02-17T05:52:12;95566.38;;;5.75;52.99
36932;BME280;22847;42.654;23.370;2023-02-17T05:54:38;95518.13;;;5.46;53.40
36932;BME280;22847;42.654;23.370;2023-02-17T05:57:03;95618.13;;;5.75;53.61
36932;BME280;22847;42.654;23.370;2023-02-17T05:59:29;95635.16;;;5.93;53.31
36932;BME280;22847;42.654;23.370;2023-02-17T06:01:54;95565.16;;;5.95;52.79
36932;BME280;22847;42.654;23.370;2023-02-17T06:04:20;95521.16;;;5.95;52.13
36932;BME280;22847;42.654;23.370;2023-02-17T06:06:45;95594.19;;;6.67;51.25
36932;BME280;22847;42.654;23.370;2023-02-17T06:09:10;95585.63;;;7.32;50.11
36932;BME280;22847;42.654;23.370;2023-02-17T06:11:36;95591.75;;;8.43;47.79
36932;BME280;22847;42.654;23.370;2023-02-17T06:14:01;95616.56;;;9.07;45.51
36932;BME280;22847;42.654;23.370;2023-02-17T06:16:27;95598.19;;;9.32;44.30
36932;BME280;22847;42.654;23.370;2023-02-17T06:18:52;95592.78;;;9.35;43.96
36932;BME280;22847;42.654;23.370;2023-02-17T06:21:17;95568.31;;;9.03;44.13
36932;BME280;22847;42.654;23.370;2023-02-17T06:23:43;95417.78;;;8.18;44.47
36932;BME280;22847;42.654;23.370;2023-02-17T06:26:08;95557.06;;;8.68;44.75
36932;BME280;22847;42.654;23.370;2023-02-17T06:28:33;95584.03;;;9.48;43.75
36932;BME280;22847;42.654;23.370;2023-02-17T06:30:59;95561.59;;;10.02;42.15
36932;BME280;22847;42.654;23.370;2023-02-17T06:33:24;95554.09;;;10.42;41.13
36932;BME280;22847;42.654;23.370;2023-02-17T06:35:50;95533.69;;;11.52;38.72
36932;BME280;22847;42.654;23.370;2023-02-17T06:38:16;95409.22;;;12.41;35.98
36932;BME280;22847;42.654;23.370;2023-02-17T06:40:42;95579.63;;;15.09;33.40
36932;BME280;22847;42.654;23.370;2023-02-17T06:43:07;95393.16;;;15.69;30.63
36932;BME280;22847;42.654;23.370;2023-02-17T06:45:33;95575.88;;;18.29;28.79
36932;BME280;22847;42.654;23.370;2023-02-17T06:47:58;95441.06;;;18.31;26.49
36932;BME280;22847;42.654;23.370;2023-02-17T06:50:23;95587.53;;;20.12;25.17
36932;BME280;22847;42.654;23.370;2023-02-17T06:52:49;95568.75;;;20.51;24.14
36932;BME280;22847;42.654;23.370;2023-02-17T06:55:14;95549.03;;;20.89;24.03
36932;BME280;22847;42.654;23.370;2023-02-17T06:57:40;95597.88;;;21.31;23.38
36932;BME280;22847;42.654;23.370;2023-02-17T07:00:06;95555.22;;;20.75;23.66
36932;BME280;22847;42.654;23.370;2023-02-17T07:02:31;95586.34;;;20.88;23.31
36932;BME280;22847;42.654;23.370;2023-02-17T07:04:57;95587.22;;;20.30;23.94
36932;BME280;22847;42.654;23.370;2023-02-17T07:07:22;95587.00;;;20.46;23.94
36932;BME280;22847;42.654;23.370;2023-02-17T07:09:48;95593.13;;;20.46;24.02
36932;BME280;22847;42.654;23.370;2023-02-17T07:12:13;95621.00;;;20.72;23.83
36932;BME280;22847;42.654;23.370;2023-02-17T07:14:38;95457.75;;;19.83;24.03
36932;BME280;22847;42.654;23.370;2023-02-17T07:17:04;95601.78;;;20.26;24.10
36932;BME280;22847;42.654;23.370;2023-02-17T07:19:29;95378.03;;;18.96;24.59
36932;BME280;22847;42.654;23.370;2023-02-17T07:21:55;95383.66;;;19.16;24.20
36932;BME280;22847;42.654;23.370;2023-02-17T07:24:20;95401.38;;;19.30;24.43
36932;BME280;22847;42.654;23.370;2023-02-17T07:26:46;95600.25;;;20.46;24.82
36932;BME280;22847;42.654;23.370;2023-02-17T07:29:11;95610.53;;;20.12;25.21
36932;BME280;22847;42.654;23.370;2023-02-17T07:31:36;95565.31;;;19.61;25.78
36932;BME280;22847;42.654;23.370;2023-02-17T07:34:03;95424.44;;;18.22;25.77
36932;BME280;22847;42.654;23.370;2023-02-17T07:36:28;95608.00;;;19.04;26.51
36932;BME280;22847;42.654;23.370;2023-02-17T07:38:54;95603.59;;;18.89;26.32
36932;BME280;22847;42.654;23.370;2023-02-17T07:41:22;95494.81;;;17.99;26.56
36932;BME280;22847;42.654;23.370;2023-02-17T07:43:52;95542.16;;;17.84;27.50
36932;BME280;22847;42.654;23.370;2023-02-17T07:46:18;95611.25;;;18.04;27.39
36932;BME280;22847;42.654;23.370;2023-02-17T07:48:43;95612.59;;;18.00;27.55
36932;BME280;22847;42.654;23.370;2023-02-17T07:51:11;95468.34;;;16.79;27.87
36932;BME280;22847;42.654;23.370;2023-02-17T07:53:37;95550.53;;;17.07;28.21
36932;BME280;22847;42.654;23.370;2023-02-17T07:56:08;95609.34;;;17.08;28.69
36932;BME280;22847;42.654;23.370;2023-02-17T07:58:36;95564.59;;;16.32;29.40
36932;BME280;22847;42.654;23.370;2023-02-17T08:01:13;95600.16;;;16.36;29.71
36932;BME280;22847;42.654;23.370;2023-02-17T08:03:39;95597.94;;;15.72;30.46
36932;BME280;22847;42.654;23.370;2023-02-17T08:06:13;95336.44;;;13.84;31.42
36932;BME280;22847;42.654;23.370;2023-02-17T08:08:39;95615.84;;;15.50;31.15
36932;BME280;22847;42.654;23.370;2023-02-17T08:11:23;95575.63;;;15.40;31.25
36932;BME280;22847;42.654;23.370;2023-02-17T08:14:07;95602.91;;;15.75;31.71
36932;BME280;22847;42.654;23.370;2023-02-17T08:16:33;95610.31;;;16.31;31.10
36932;BME280;22847;42.654;23.370;2023-02-17T08:18:58;95598.75;;;16.16;30.01
36932;BME280;22847;42.654;23.370;2023-02-17T08:21:25;95610.13;;;16.24;30.57
36932;BME280;22847;42.654;23.370;2023-02-17T08:23:50;95454.13;;;15.21;30.56
36932;BME280;22847;42.654;23.370;2023-02-17T08:26:17;95458.19;;;15.41;31.09
36932;BME280;22847;42.654;23.370;2023-02-17T08:28:43;95609.03;;;16.61;30.71
36932;BME280;22847;42.654;23.370;2023-02-17T08:31:20;95621.09;;;16.45;30.70
36932;BME280;22847;42.654;23.370;2023-02-17T08:33:46;95424.41;;;15.20;30.44
36932;BME280;22847;42.654;23.370;2023-02-17T08:36:12;95578.06;;;16.21;31.40
36932;BME280;22847;42.654;23.370;2023-02-17T08:38:38;95451.28;;;15.14;30.78
36932;BME280;22847;42.654;23.370;2023-02-17T08:41:15;95403.75;;;14.82;30.99
36932;BME280;22847;42.654;23.370;2023-02-17T08:43:41;95604.00;;;16.16;31.40
36932;BME280;22847;42.654;23.370;2023-02-17T08:46:10;95607.59;;;16.40;31.03
36932;BME280;22847;42.654;23.370;2023-02-17T08:48:36;95507.59;;;16.06;30.97
36932;BME280;22847;42.654;23.370;2023-02-17T08:51:03;95611.44;;;16.88;29.98
36932;BME280;22847;42.654;23.370;2023-02-17T08:53:28;95538.81;;;16.77;29.91
36932;BME280;22847;42.654;23.370;2023-02-17T08:55:54;95605.94;;;17.31;29.61
36932;BME280;22847;42.654;23.370;2023-02-17T08:58:19;95592.13;;;17.46;29.60
36932;BME280;22847;42.654;23.370;2023-02-17T09:00:45;95557.66;;;17.39;29.10
36932;BME280;22847;42.654;23.370;2023-02-17T09:03:10;95622.78;;;17.55;29.33
36932;BME280;22847;42.654;23.370;2023-02-17T09:05:36;95574.47;;;17.38;30.17
36932;BME280;22847;42.654;23.370;2023-02-17T09:08:02;95581.09;;;17.74;29.03
36932;BME280;22847;42.654;23.370;2023-02-17T09:10:28;95429.97;;;16.69;28.52
36932;BME280;22847;42.654;23.370;2023-02-17T09:12:53;95357.81;;;16.21;29.16
36932;BME280;22847;42.654;23.370;2023-02-17T09:15:19;95576.09;;;17.47;29.09
36932;BME280;22847;42.654;23.370;2023-02-17T09:17:44;95426.09;;;16.31;29.22
36932;BME280;22847;42.654;23.370;2023-02-17T09:20:10;95585.38;;;17.51;29.47
36932;BME280;22847;42.654;23.370;2023-02-17T09:22:36;95375.44;;;16.29;28.96
36932;BME280;22847;42.654;23.370;2023-02-17T09:25:03;95583.59;;;17.60;28.70
36932;BME280;22847;42.654;23.370;2023-02-17T09:27:29;95386.16;;;16.51;28.78
36932;BME280;22847;42.654;23.370;2023-02-17T09:29:55;95457.97;;;16.70;28.63
36932;BME280;22847;42.654;23.370;2023-02-17T09:32:21;95422.91;;;16.69;28.94
36932;BME280;22847;42.654;23.370;2023-02-17T09:34:46;95395.09;;;16.75;29.02
36932;BME280;22847;42.654;23.370;2023-02-17T09:37:16;95393.94;;;17.02;27.91
36932;BME280;22847;42.654;23.370;2023-02-17T09:39:45;95373.00;;;17.00;28.13
36932;BME280;22847;42.654;23.370;2023-02-17T09:42:20;95575.69;;;18.39;27.76
36932;BME280;22847;42.654;23.370;2023-02-17T09:44:53;95382.06;;;17.14;27.63
36932;BME280;22847;42.654;23.370;2023-02-17T09:47:23;95554.84;;;17.97;27.80
36932;BME280;22847;42.654;23.370;2023-02-17T09:50:16;95564.66;;;18.36;27.59
36932;BME280;22847;42.654;23.370;2023-02-17T09:55:21;95523.00;;;17.99;27.79
36932;BME280;22847;42.654;23.370;2023-02-17T10:00:49;95563.75;;;18.51;27.60
36932;BME280;22847;42.654;23.370;2023-02-17T10:09:02;95376.94;;;17.12;24.63
36932;BME280;22847;42.654;23.370;2023-02-17T10:11:33;95502.94;;;17.81;24.95
36932;BME280;22847;42.654;23.370;2023-02-17T10:14:03;95539.97;;;18.12;23.95
36932;BME280;22847;42.654;23.370;2023-02-17T10:16:35;95493.09;;;17.59;24.19
36932;BME280;22847;42.654;23.370;2023-02-17T10:19:15;95338.28;;;16.80;23.75
36932;BME280;22847;42.654;23.370;2023-02-17T10:21:50;95564.94;;;17.86;24.00
36932;BME280;22847;42.654;23.370;2023-02-17T10:24:20;95523.84;;;17.99;23.91
36932;BME280;22847;42.654;23.370;2023-02-17T10:27:02;95539.50;;;17.93;23.68
36932;BME280;22847;42.654;23.370;2023-02-17T10:29:51;95529.78;;;17.85;26.03
36932;BME280;22847;42.654;23.370;2023-02-17T10:32:25;95527.47;;;17.90;23.82
36932;BME280;22847;42.654;23.370;2023-02-17T10:37:48;95517.19;;;18.11;23.48
36932;BME280;22847;42.654;23.370;2023-02-17T10:40:18;95515.25;;;17.97;23.41
36932;BME280;22847;42.654;23.370;2023-02-17T10:42:46;95473.94;;;17.65;24.62
36932;BME280;22847;42.654;23.370;2023-02-17T10:47:45;95448.72;;;17.55;23.54
36932;BME280;22847;42.654;23.370;2023-02-17T10:50:20;95323.47;;;16.71;24.75
36932;BME280;22847;42.654;23.370;2023-02-17T10:52:46;95533.72;;;17.97;24.40
36932;BME280;22847;42.654;23.370;2023-02-17T10:55:36;95531.59;;;17.93;24.11
36932;BME280;22847;42.654;23.370;2023-02-17T10:58:54;95379.38;;;17.30;24.09
36932;BME280;22847;42.654;23.370;2023-02-17T11:00:54;95459.41;;;17.53;24.38
36932;BME280;22847;42.654;23.370;2023-02-17T11:03:26;95529.75;;;18.01;25.06
36932;BME280;22847;42.654;23.370;2023-02-17T11:06:13;95526.41;;;18.15;23.89
36932;BME280;22847;42.654;23.370;2023-02-17T11:08:44;95484.19;;;18.15;23.97
36932;BME280;22847;42.654;23.370;2023-02-17T11:11:18;95418.81;;;17.87;23.92
36932;BME280;22847;42.654;23.370;2023-02-17T11:16:25;95449.59;;;18.02;24.27
36932;BME280;22847;42.654;23.370;2023-02-17T11:18:51;95455.13;;;18.15;24.15
36932;BME280;22847;42.654;23.370;2023-02-17T11:21:17;95459.19;;;17.95;25.57
36932;BME280;22847;42.654;23.370;2023-02-17T11:24:02;95360.38;;;17.42;23.77
36932;BME280;22847;42.654;23.370;2023-02-17T11:26:30;95303.03;;;16.89;24.74
36932;BME280;22847;42.654;23.370;2023-02-17T11:29:13;95522.84;;;17.92;24.41
36932;BME280;22847;42.654;23.370;2023-02-17T11:31:39;95505.06;;;17.86;24.28
36932;BME280;22847;42.654;23.370;2023-02-17T11:34:13;95437.69;;;17.43;24.91
36932;BME280;22847;42.654;23.370;2023-02-17T11:36:39;95294.84;;;16.52;25.15
36932;BME280;22847;42.654;23.370;2023-02-17T11:39:19;95459.44;;;17.69;26.11
36932;BME280;22847;42.654;23.370;2023-02-17T11:41:44;95491.06;;;17.77;25.38
36932;BME280;22847;42.654;23.370;2023-02-17T11:44:10;95463.88;;;17.77;25.94
36932;BME280;22847;42.654;23.370;2023-02-17T11:49:06;95461.19;;;17.85;25.45
36932;BME280;22847;42.654;23.370;2023-02-17T11:51:56;95457.09;;;17.82;25.35
36932;BME280;22847;42.654;23.370;2023-02-17T11:55:02;95483.50;;;17.66;24.85
36932;BME280;22847;42.654;23.370;2023-02-17T12:05:25;95336.78;;;16.94;25.78
36932;BME280;22847;42.654;23.370;2023-02-17T12:08:11;95434.38;;;17.49;26.54
36932;BME280;22847;42.654;23.370;2023-02-17T12:10:58;95435.38;;;17.48;26.29
36932;BME280;22847;42.654;23.370;2023-02-17T12:13:35;95452.34;;;17.54;26.58
36932;BME280;22847;42.654;23.370;2023-02-17T12:19:23;95427.59;;;17.71;26.63
36932;BME280;22847;42.654;23.370;2023-02-17T12:22:16;95425.13;;;17.77;25.77
36932;BME280;22847;42.654;23.370;2023-02-17T12:27:18;95233.13;;;16.55;26.25
36932;BME280;22847;42.654;23.370;2023-02-17T12:32:52;95412.75;;;17.78;25.76
36932;BME280;22847;42.654;23.370;2023-02-17T12:35:37;95424.13;;;17.78;25.68
36932;BME280;22847;42.654;23.370;2023-02-17T12:38:17;95378.03;;;17.58;25.94
36932;BME280;22847;42.654;23.370;2023-02-17T12:43:57;95403.34;;;17.75;25.82
36932;BME280;22847;42.654;23.370;2023-02-17T12:46:48;95397.94;;;17.69;26.01
36932;BME280;22847;42.654;23.370;2023-02-17T12:49:26;95201.19;;;16.49;25.88
36932;BME280;22847;42.654;23.370;2023-02-17T12:51:58;95388.69;;;17.57;26.80
36932;BME280;22847;42.654;23.370;2023-02-17T12:54:39;95198.72;;;16.48;26.09
36932;BME280;22847;42.654;23.370;2023-02-17T12:57:13;95384.25;;;17.65;26.49
36932;BME280;22847;42.654;23.370;2023-02-17T12:59:48;95357.41;;;17.54;27.20
36932;BME280;22847;42.654;23.370;2023-02-17T13:02:22;95369.56;;;17.71;25.82
36932;BME280;22847;42.654;23.370;2023-02-17T13:04:51;95174.38;;;16.62;25.80
36932;BME280;22847;42.654;23.370;2023-02-17T13:07:41;95377.63;;;17.77;25.93
36932;BME280;22847;42.654;23.370;2023-02-17T13:10:27;95393.50;;;17.69;26.11
36932;BME280;22847;42.654;23.370;2023-02-17T13:15:33;95374.53;;;17.58;26.41
36932;BME280;22847;42.654;23.370;2023-02-17T13:18:02;95381.41;;;17.75;25.98
36932;BME280;22847;42.654;23.370;2023-02-17T13:20:39;95372.16;;;17.87;26.17
36932;BME280;22847;42.654;23.370;2023-02-17T13:23:12;95364.75;;;17.82;25.89
36932;BME280;22847;42.654;23.370;2023-02-17T13:25:38;95177.66;;;16.56;26.14
36932;BME280;22847;42.654;23.370;2023-02-17T13:28:33;95364.47;;;17.69;25.96
36932;BME280;22847;42.654;23.370;2023-02-17T13:31:18;95180.00;;;16.35;25.56
36932;BME280;22847;42.654;23.370;2023-02-17T13:33:52;95344.56;;;17.51;25.76
36932;BME280;22847;42.654;23.370;2023-02-17T13:39:03;95364.84;;;17.58;25.24
36932;BME280;22847;42.654;23.370;2023-02-17T13:41:45;95041.84;;;15.43;25.64
36932;BME280;22847;42.654;23.370;2023-02-17T13:44:25;95383.13;;;17.60;25.97
36932;BME280;22847;42.654;23.370;2023-02-17T13:46:55;95270.09;;;17.02;25.03
36932;BME280;22847;42.654;23.370;2023-02-17T13:49:24;95360.19;;;17.52;25.20
36932;BME280;22847;42.654;23.370;2023-02-17T13:52:15;95219.97;;;16.63;24.16
36932;BME280;22847;42.654;23.370;2023-02-17T13:57:27;95378.34;;;17.55;25.12
36932;BME280;22847;42.654;23.370;2023-02-17T14:00:07;95215.88;;;16.60;24.21
36932;BME280;22847;42.654;23.370;2023-02-17T14:02:36;95360.59;;;17.33;24.24
36932;BME280;22847;42.654;23.370;2023-02-17T14:05:20;95372.25;;;17.38;24.32
36932;BME280;22847;42.654;23.370;2023-02-17T14:07:47;95316.00;;;17.07;24.29
36932;BME280;22847;42.654;23.370;2023-02-17T14:10:22;95350.38;;;17.30;24.27
36932;BME280;22847;42.654;23.370;2023-02-17T14:12:49;95309.75;;;17.08;23.21
36932;BME280;22847;42.654;23.370;2023-02-17T14:15:19;95348.94;;;17.19;23.62